Las Tinajas, Argentina
Current Conditions -  °F | °C
As of 8:00 AM on Friday 19 Dec 2014 (Local Time) from SANT Reporting Station
Clear Clear  
Wind Chill: 72°   Ceiling: Unl
Heat Index: 72°   Visibility: 6mi
Dew Point: 64°   Wind: 2mph
Humidity: 78%   Direction: 270°W
Pressure: 29.8"   Gusts: NA
Location:  27.38°S, 62.76°W
Report Text: SANT 191100Z 27002KT 9000 NSC 22/18 Q1009
Loading
Personal Weather Stations






























Interactive Weather Map New forecast layout! Learn more

10-Day Weather Forecast

Advertisements
Track Severe Weather on mobile